Time;durP1;ratioP1;P1;durP2;ratioP2;P2;SDS_P1;SDS_P2;PMS_P1;PMS_P2;Temp;Humidity;BMP_temperature;BMP_pressure;BME280_temperature;BME280_humidity;BME280_pressure;Samples;Min_cycle;Max_cycle;Signal;HPM_P1;HPM_P2
2023/08/01 00:00:53;;;;;;;8.38;1.90;;;16.40;99.90;;;;;;5027465;28;20388;-71
2023/08/01 00:03:18;;;;;;;11.98;1.92;;;16.40;99.90;;;;;;5028366;28;20052;-71
2023/08/01 00:05:45;;;;;;;9.90;2.55;;;16.40;99.90;;;;;;5028828;28;20133;-71
2023/08/01 00:08:14;;;;;;;13.43;2.70;;;16.40;99.90;;;;;;5029041;28;20124;-71
2023/08/01 00:10:43;;;;;;;10.65;2.60;;;16.30;99.90;;;;;;5028111;28;20080;-71
2023/08/01 00:13:09;;;;;;;10.43;2.50;;;16.40;99.90;;;;;;5028495;28;20049;-71
2023/08/01 00:15:35;;;;;;;8.23;2.20;;;16.30;99.90;;;;;;5029421;28;20499;-72
2023/08/01 00:18:01;;;;;;;11.95;2.75;;;16.40;99.90;;;;;;5027592;28;20053;-71
2023/08/01 00:20:26;;;;;;;11.40;2.90;;;16.30;99.90;;;;;;5028819;28;20045;-71
2023/08/01 00:22:52;;;;;;;10.48;2.40;;;16.40;99.90;;;;;;5044111;28;20065;-70
2023/08/01 00:25:18;;;;;;;10.57;2.40;;;16.30;99.90;;;;;;5028929;28;20042;-71
2023/08/01 00:27:44;;;;;;;13.73;2.22;;;16.30;99.90;;;;;;5036753;28;20052;-71
2023/08/01 00:30:10;;;;;;;9.50;2.63;;;16.30;99.90;;;;;;5013169;28;20533;-71
2023/08/01 00:32:36;;;;;;;6.53;2.60;;;16.40;99.90;;;;;;5028415;28;20049;-70
2023/08/01 00:35:03;;;;;;;6.50;2.22;;;16.30;99.90;;;;;;5027349;28;20506;-71
2023/08/01 00:37:28;;;;;;;10.70;3.28;;;16.30;99.90;;;;;;5029123;28;20057;-70
2023/08/01 00:39:54;;;;;;;11.23;2.63;;;16.30;99.90;;;;;;5027733;28;20054;-71
2023/08/01 00:42:20;;;;;;;9.63;2.72;;;16.30;99.90;;;;;;5027891;28;20487;-71
2023/08/01 00:44:48;;;;;;;6.35;2.45;;;16.30;99.90;;;;;;5027688;28;20107;-71
2023/08/01 00:47:15;;;;;;;12.32;2.33;;;16.30;99.90;;;;;;5044522;28;20129;-71
2023/08/01 00:49:41;;;;;;;11.52;2.28;;;16.30;99.90;;;;;;5028003;28;20064;-71
2023/08/01 00:52:09;;;;;;;5.75;2.08;;;16.30;99.90;;;;;;5027503;28;20053;-71
2023/08/01 00:54:36;;;;;;;13.75;2.53;;;16.20;99.90;;;;;;5044288;28;20123;-70
2023/08/01 00:57:03;;;;;;;8.98;2.78;;;16.30;99.90;;;;;;5043844;28;20048;-71
2023/08/01 00:59:30;;;;;;;8.45;2.40;;;16.20;99.90;;;;;;5039272;28;20037;-70
2023/08/01 01:01:56;;;;;;;11.77;2.30;;;16.20;99.90;;;;;;5034048;28;20474;-71
2023/08/01 01:04:22;;;;;;;10.00;2.95;;;16.20;99.90;;;;;;5028326;28;20091;-70
2023/08/01 01:06:53;;;;;;;9.35;2.42;;;16.20;99.90;;;;;;5027080;28;20042;-71
2023/08/01 01:09:20;;;;;;;10.40;2.65;;;16.20;99.90;;;;;;5027436;28;20052;-71
2023/08/01 01:11:46;;;;;;;9.40;2.30;;;16.20;99.90;;;;;;5029351;28;20050;-70
2023/08/01 01:14:13;;;;;;;10.50;2.80;;;16.20;99.90;;;;;;5031201;28;20072;-71
2023/08/01 01:16:38;;;;;;;5.60;2.38;;;16.20;99.90;;;;;;5027597;28;20053;-71
2023/08/01 01:19:08;;;;;;;12.52;2.55;;;16.20;99.90;;;;;;5026819;28;20049;-71
2023/08/01 01:21:35;;;;;;;12.35;3.33;;;16.20;99.90;;;;;;5014199;28;20411;-71
2023/08/01 01:24:04;;;;;;;11.95;2.63;;;16.20;99.90;;;;;;5026459;28;20046;-71
2023/08/01 01:26:32;;;;;;;8.23;2.20;;;16.10;99.90;;;;;;5029371;28;20172;-71
2023/08/01 01:28:58;;;;;;;8.65;2.03;;;16.20;99.90;;;;;;5060059;28;20370;-71
2023/08/01 01:31:24;;;;;;;9.52;2.97;;;16.10;99.90;;;;;;5012773;28;20442;-71
2023/08/01 01:33:50;;;;;;;9.23;2.53;;;16.10;99.90;;;;;;5011611;28;20050;-70
2023/08/01 01:36:16;;;;;;;9.45;2.65;;;16.00;99.90;;;;;;5055604;28;20419;-71
2023/08/01 01:38:42;;;;;;;10.13;3.08;;;16.00;99.90;;;;;;5039732;28;20044;-70
2023/08/01 01:41:07;;;;;;;8.23;2.38;;;16.00;99.90;;;;;;5026363;28;20081;-71
2023/08/01 01:43:33;;;;;;;6.53;3.03;;;16.00;99.90;;;;;;5027026;28;20080;-71
2023/08/01 01:45:59;;;;;;;9.65;2.75;;;16.10;99.90;;;;;;5042823;28;20042;-71
2023/08/01 01:48:24;;;;;;;7.75;3.13;;;16.00;99.90;;;;;;5043371;28;20048;-71
2023/08/01 01:50:50;;;;;;;4.50;2.17;;;16.00;99.90;;;;;;5026902;28;20072;-70
2023/08/01 01:53:16;;;;;;;6.63;2.33;;;16.00;99.90;;;;;;5009024;28;20471;-71
2023/08/01 01:55:42;;;;;;;12.77;2.53;;;16.00;99.90;;;;;;5026620;28;20051;-70
2023/08/01 01:58:08;;;;;;;7.78;2.38;;;15.90;99.90;;;;;;5026159;28;20128;-71
2023/08/01 02:00:34;;;;;;;9.55;2.50;;;15.80;99.90;;;;;;5043268;28;20721;-70
2023/08/01 02:03:02;;;;;;;9.95;2.70;;;15.90;99.90;;;;;;5030753;28;20136;-70
2023/08/01 02:05:31;;;;;;;5.57;2.35;;;15.90;99.90;;;;;;5026723;28;20089;-70
2023/08/01 02:07:57;;;;;;;7.38;1.88;;;15.80;99.90;;;;;;5026184;28;20717;-71
2023/08/01 02:10:23;;;;;;;8.07;2.40;;;15.70;99.90;;;;;;5026475;28;20061;-71
2023/08/01 02:12:49;;;;;;;7.00;2.40;;;15.70;99.90;;;;;;5026552;28;20115;-71
2023/08/01 02:15:15;;;;;;;6.03;1.90;;;15.70;99.90;;;;;;5026665;28;20470;-71
2023/08/01 02:17:40;;;;;;;6.13;2.10;;;15.60;99.90;;;;;;5026355;28;20053;-71
2023/08/01 02:20:06;;;;;;;5.15;2.38;;;15.60;99.90;;;;;;5042011;28;20053;-70
2023/08/01 02:22:33;;;;;;;7.72;2.33;;;15.50;99.90;;;;;;5015146;28;20041;-71
2023/08/01 02:24:58;;;;;;;8.35;2.35;;;15.60;99.90;;;;;;5025878;28;20736;-71
2023/08/01 02:27:24;;;;;;;13.10;2.60;;;15.50;99.90;;;;;;5042358;28;20064;-71
2023/08/01 02:29:50;;;;;;;7.97;2.38;;;15.60;99.90;;;;;;5042718;28;20049;-71
2023/08/01 02:32:17;;;;;;;10.07;3.13;;;15.50;99.90;;;;;;5058760;28;20088;-71
2023/08/01 02:34:42;;;;;;;8.02;2.40;;;15.40;99.90;;;;;;5026215;28;20103;-71
2023/08/01 02:37:08;;;;;;;7.72;2.33;;;15.50;99.90;;;;;;5024562;28;20488;-71
2023/08/01 02:39:35;;;;;;;10.50;2.42;;;15.40;99.90;;;;;;5042481;28;20052;-71
2023/08/01 02:42:02;;;;;;;9.48;2.60;;;15.50;99.90;;;;;;5042342;28;20052;-71
2023/08/01 02:44:29;;;;;;;7.80;2.40;;;15.40;99.90;;;;;;5026212;28;20454;-71
2023/08/01 02:46:54;;;;;;;3.47;1.80;;;15.40;99.90;;;;;;5058870;28;20056;-71
2023/08/01 02:49:20;;;;;;;6.00;2.10;;;15.30;99.90;;;;;;5025331;28;20399;-71
2023/08/01 02:51:46;;;;;;;3.97;1.70;;;15.40;99.90;;;;;;5042076;28;20471;-71
2023/08/01 02:54:11;;;;;;;3.30;2.05;;;15.30;99.90;;;;;;5029945;28;20626;-71
2023/08/01 02:56:41;;;;;;;8.82;1.88;;;15.20;99.90;;;;;;5025440;28;20060;-71
2023/08/01 02:59:10;;;;;;;5.45;2.22;;;15.30;99.90;;;;;;5024270;28;20046;-71
2023/08/01 03:01:37;;;;;;;14.10;2.28;;;15.30;99.90;;;;;;5026332;28;20491;-71
2023/08/01 03:04:04;;;;;;;6.57;2.25;;;15.20;99.90;;;;;;5041115;28;20130;-71
2023/08/01 03:06:32;;;;;;;11.35;2.10;;;15.20;99.90;;;;;;5025233;28;20201;-71
2023/08/01 03:08:58;;;;;;;3.42;2.17;;;15.20;99.90;;;;;;5041882;28;20139;-71
2023/08/01 03:11:24;;;;;;;6.43;2.25;;;15.10;99.90;;;;;;5041100;28;20092;-71
2023/08/01 03:13:50;;;;;;;3.95;1.90;;;15.10;99.90;;;;;;5026986;28;20060;-71
2023/08/01 03:16:17;;;;;;;6.20;2.30;;;15.10;99.90;;;;;;5023156;28;20563;-71
2023/08/01 03:18:43;;;;;;;9.60;2.45;;;15.10;99.90;;;;;;5042179;28;20449;-71
2023/08/01 03:21:10;;;;;;;6.25;2.10;;;15.00;99.90;;;;;;5024698;28;20030;-71
2023/08/01 03:23:35;;;;;;;6.93;1.85;;;14.90;99.90;;;;;;5025268;28;20412;-71
2023/08/01 03:26:01;;;;;;;5.53;2.15;;;15.00;99.90;;;;;;5025990;28;20056;-71
2023/08/01 03:28:27;;;;;;;12.23;2.17;;;14.90;99.90;;;;;;5027714;28;20049;-71
2023/08/01 03:30:53;;;;;;;5.40;1.90;;;14.80;99.90;;;;;;5025101;28;20068;-71
2023/08/01 03:33:23;;;;;;;6.72;2.20;;;14.80;99.90;;;;;;5007121;28;20045;-71
2023/08/01 03:35:48;;;;;;;6.63;2.50;;;14.90;99.90;;;;;;5024767;28;20492;-71
2023/08/01 03:38:14;;;;;;;6.95;2.13;;;14.80;99.90;;;;;;5025108;28;20046;-71
2023/08/01 03:40:40;;;;;;;9.10;2.25;;;14.80;99.90;;;;;;5024744;28;20050;-72
2023/08/01 03:43:09;;;;;;;7.70;2.35;;;14.90;99.90;;;;;;5025735;28;20458;-71
2023/08/01 03:45:40;;;;;;;5.10;1.80;;;14.80;99.90;;;;;;5024387;28;20598;-71
2023/08/01 03:48:06;;;;;;;5.35;2.42;;;14.80;99.90;;;;;;5041236;28;20136;-71
2023/08/01 03:50:32;;;;;;;4.70;2.25;;;14.90;99.90;;;;;;5024972;28;20041;-71
2023/08/01 03:52:58;;;;;;;10.48;2.15;;;14.90;99.90;;;;;;5025057;28;20041;-71
2023/08/01 03:55:23;;;;;;;7.88;2.13;;;14.80;99.90;;;;;;5023331;28;20033;-72
2023/08/01 03:57:49;;;;;;;7.85;2.38;;;14.90;99.90;;;;;;5024507;28;20583;-72
2023/08/01 04:00:18;;;;;;;8.52;2.20;;;14.80;99.90;;;;;;5023608;28;20055;-72
2023/08/01 04:02:43;;;;;;;7.50;1.88;;;14.80;99.90;;;;;;5024686;28;20050;-72
2023/08/01 04:05:09;;;;;;;10.27;2.75;;;14.90;99.90;;;;;;5024366;28;20115;-71
2023/08/01 04:07:36;;;;;;;9.50;2.45;;;14.80;99.90;;;;;;5023688;28;20487;-72
2023/08/01 04:10:02;;;;;;;9.23;2.30;;;15.00;99.90;;;;;;5024476;28;20041;-71
2023/08/01 04:12:29;;;;;;;3.67;1.98;;;15.00;99.90;;;;;;5023494;28;20057;-72
2023/08/01 04:14:55;;;;;;;7.03;2.30;;;15.00;99.90;;;;;;5024126;28;20521;-72
2023/08/01 04:17:21;;;;;;;10.27;2.47;;;14.90;99.90;;;;;;5041429;28;20218;-71
2023/08/01 04:19:46;;;;;;;9.57;2.25;;;15.00;99.90;;;;;;5011277;28;20361;-71
2023/08/01 04:22:12;;;;;;;7.53;2.47;;;15.00;99.90;;;;;;5027515;28;20051;-72
2023/08/01 04:24:38;;;;;;;10.15;2.78;;;15.00;99.90;;;;;;5027217;28;20068;-71
2023/08/01 04:27:04;;;;;;;5.50;2.53;;;15.10;99.90;;;;;;5027954;28;20095;-72
2023/08/01 04:29:30;;;;;;;7.15;2.50;;;15.10;99.90;;;;;;5026850;28;20518;-74
2023/08/01 04:31:57;;;;;;;4.85;2.38;;;15.10;99.90;;;;;;5028182;28;20045;-72
2023/08/01 04:34:22;;;;;;;6.57;2.35;;;15.10;99.90;;;;;;5026659;28;20045;-72
2023/08/01 04:36:48;;;;;;;6.47;2.17;;;15.00;99.90;;;;;;5028563;28;20052;-73
2023/08/01 04:39:14;;;;;;;9.90;2.22;;;15.10;99.90;;;;;;5028925;28;20521;-73
2023/08/01 04:41:40;;;;;;;8.88;2.50;;;15.20;99.90;;;;;;5026651;28;20057;-73
2023/08/01 04:44:06;;;;;;;6.90;2.25;;;15.20;99.90;;;;;;5044206;28;20104;-72
2023/08/01 04:46:32;;;;;;;5.38;2.38;;;15.20;99.90;;;;;;5026258;28;20061;-72
2023/08/01 04:48:58;;;;;;;5.05;2.45;;;15.20;99.90;;;;;;5044024;28;20069;-73
2023/08/01 04:51:24;;;;;;;5.97;2.28;;;15.20;99.90;;;;;;5042730;28;20045;-73
2023/08/01 04:53:50;;;;;;;9.27;2.30;;;15.20;99.90;;;;;;5027393;28;20052;-73
2023/08/01 04:56:16;;;;;;;8.52;2.53;;;15.20;99.90;;;;;;5026809;28;20064;-72
2023/08/01 04:58:42;;;;;;;3.72;1.85;;;15.20;99.90;;;;;;5059913;28;20041;-71
2023/08/01 05:01:08;;;;;;;5.43;2.38;;;15.20;99.90;;;;;;5043509;28;20052;-71
2023/08/01 05:03:33;;;;;;;9.60;2.15;;;15.30;99.90;;;;;;5010042;28;20493;-72
2023/08/01 05:05:59;;;;;;;9.70;2.00;;;15.40;99.90;;;;;;5028350;28;20049;-72
2023/08/01 05:08:25;;;;;;;11.10;1.80;;;15.30;99.90;;;;;;5009585;28;20049;-72
2023/08/01 05:10:51;;;;;;;8.13;2.08;;;15.30;99.90;;;;;;5027372;28;20088;-71
2023/08/01 05:13:16;;;;;;;1.60;1.50;;;15.30;99.90;;;;;;5026763;28;20415;-72
2023/08/01 05:15:49;;;;;;;6.65;1.55;;;15.30;99.90;;;;;;5026237;28;20411;-71
2023/08/01 05:18:18;;;;;;;6.55;1.98;;;15.40;99.90;;;;;;5026844;28;20050;-71
2023/08/01 05:20:44;;;;;;;11.73;1.92;;;15.30;99.90;;;;;;5026527;28;20072;-71
2023/08/01 05:23:10;;;;;;;5.15;1.38;;;15.40;99.90;;;;;;5027008;28;20408;-71
2023/08/01 05:25:36;;;;;;;8.20;1.30;;;15.40;99.90;;;;;;5009919;28;20060;-71
2023/08/01 05:28:02;;;;;;;7.07;1.63;;;15.40;99.90;;;;;;5032864;28;20041;-71
2023/08/01 05:30:27;;;;;;;7.63;1.40;;;15.40;99.90;;;;;;5026098;28;20203;-71
2023/08/01 05:32:54;;;;;;;6.63;1.52;;;15.40;99.90;;;;;;5030685;28;20045;-71
2023/08/01 05:35:20;;;;;;;6.45;1.27;;;15.40;99.90;;;;;;5025734;28;20569;-72
2023/08/01 05:37:46;;;;;;;4.00;1.45;;;15.40;99.90;;;;;;5031294;28;20188;-72
2023/08/01 05:40:12;;;;;;;5.85;1.15;;;15.40;99.90;;;;;;5019487;28;20500;-71
2023/08/01 05:42:38;;;;;;;7.78;1.50;;;15.50;99.90;;;;;;5025964;28;20049;-71
2023/08/01 05:45:04;;;;;;;9.32;1.48;;;15.70;99.90;;;;;;5026804;28;20064;-71
2023/08/01 05:47:31;;;;;;;3.90;1.33;;;15.80;99.90;;;;;;5026627;28;20053;-71
2023/08/01 05:49:57;;;;;;;9.10;1.95;;;15.90;99.90;;;;;;5027034;28;20053;-72
2023/08/01 05:52:23;;;;;;;4.90;1.50;;;16.00;99.90;;;;;;5026259;28;20041;-71
2023/08/01 05:54:49;;;;;;;6.60;1.20;;;16.10;99.90;;;;;;5042557;28;20064;-72
2023/08/01 05:57:15;;;;;;;9.98;2.22;;;16.40;99.90;;;;;;5027335;28;20045;-72
2023/08/01 05:59:41;;;;;;;6.32;1.60;;;16.50;99.90;;;;;;5025686;28;20034;-72
2023/08/01 06:02:07;;;;;;;9.85;1.85;;;16.60;99.90;;;;;;5026862;28;20041;-72
2023/08/01 06:04:32;;;;;;;9.40;1.42;;;16.70;99.90;;;;;;5026220;28;20048;-72
2023/08/01 06:06:58;;;;;;;4.78;1.42;;;16.50;99.90;;;;;;5059872;28;20503;-71
2023/08/01 06:09:25;;;;;;;7.35;1.50;;;16.50;99.90;;;;;;5026999;28;20057;-72
2023/08/01 06:11:51;;;;;;;6.00;1.52;;;16.40;99.90;;;;;;5026377;28;20053;-71
2023/08/01 06:14:17;;;;;;;9.15;1.50;;;16.30;99.90;;;;;;5042873;28;20049;-71
2023/08/01 06:16:43;;;;;;;4.63;1.30;;;16.20;99.90;;;;;;5006160;28;20052;-72
2023/08/01 06:19:09;;;;;;;5.70;1.10;;;16.20;99.90;;;;;;5030058;28;20033;-72
2023/08/01 06:21:35;;;;;;;2.97;1.50;;;16.10;99.90;;;;;;5025392;28;20043;-72
2023/08/01 06:24:00;;;;;;;14.02;1.35;;;16.20;99.90;;;;;;5026381;28;20053;-72
2023/08/01 06:26:27;;;;;;;4.07;1.40;;;16.10;99.90;;;;;;5025432;28;20124;-72
2023/08/01 06:28:53;;;;;;;3.35;1.00;;;16.10;99.90;;;;;;5026271;28;20081;-72
2023/08/01 06:31:22;;;;;;;3.42;1.00;;;16.10;99.90;;;;;;5042484;28;20495;-72
2023/08/01 06:33:47;;;;;;;2.50;1.17;;;16.10;99.90;;;;;;5025651;28;20037;-72
2023/08/01 06:36:13;;;;;;;4.80;1.02;;;16.20;99.90;;;;;;5025555;28;20450;-72
2023/08/01 06:38:39;;;;;;;2.58;1.15;;;16.20;99.90;;;;;;5023232;28;20054;-71
2023/08/01 06:41:06;;;;;;;1.48;0.90;;;16.30;99.90;;;;;;5008673;28;20053;-71
2023/08/01 06:43:31;;;;;;;3.22;1.10;;;16.20;99.90;;;;;;5041847;28;20503;-71
2023/08/01 06:45:57;;;;;;;2.75;1.02;;;16.20;99.90;;;;;;5029502;28;20083;-72
2023/08/01 06:48:23;;;;;;;3.85;1.08;;;16.30;99.90;;;;;;5026450;28;20049;-72
2023/08/01 06:50:48;;;;;;;2.85;1.13;;;16.30;99.90;;;;;;5020571;28;20049;-73
2023/08/01 06:53:14;;;;;;;3.70;1.30;;;16.30;99.90;;;;;;5032805;28;20136;-73
2023/08/01 06:55:40;;;;;;;3.20;1.10;;;16.30;99.90;;;;;;5024531;28;20513;-72
2023/08/01 06:58:06;;;;;;;6.53;1.40;;;16.30;99.90;;;;;;5025334;28;20128;-72
2023/08/01 07:00:32;;;;;;;3.08;1.10;;;16.20;99.90;;;;;;5040825;28;20046;-72
2023/08/01 07:02:57;;;;;;;2.13;1.10;;;16.20;99.90;;;;;;5032270;28;20124;-72
2023/08/01 07:05:23;;;;;;;5.90;2.10;;;16.10;99.90;;;;;;5025862;28;20084;-72
2023/08/01 07:07:49;;;;;;;3.05;0.80;;;16.20;99.90;;;;;;5025453;28;20041;-73
2023/08/01 07:10:15;;;;;;;3.30;1.30;;;16.10;99.90;;;;;;5026209;28;20092;-73
2023/08/01 07:12:40;;;;;;;1.95;0.80;;;16.00;99.90;;;;;;5040853;28;20079;-73
2023/08/01 07:15:07;;;;;;;3.92;1.08;;;16.10;99.90;;;;;;5041485;28;20049;-72
2023/08/01 07:17:33;;;;;;;15.00;1.90;;;16.20;99.90;;;;;;5031916;28;20044;-73
2023/08/01 07:19:59;;;;;;;10.40;1.20;;;16.20;99.90;;;;;;5058575;28;20080;-72
2023/08/01 07:22:24;;;;;;;1.63;0.73;;;16.20;99.90;;;;;;5025573;28;20129;-73
2023/08/01 07:24:54;;;;;;;1.55;0.63;;;16.10;99.90;;;;;;5024873;28;20141;-73
2023/08/01 07:27:20;;;;;;;2.88;0.80;;;16.20;99.90;;;;;;5000366;28;20049;-72
2023/08/01 07:29:46;;;;;;;2.15;0.60;;;16.20;99.90;;;;;;5057979;28;20132;-72
2023/08/01 07:32:12;;;;;;;3.38;1.23;;;16.30;99.90;;;;;;5039191;28;20460;-72
2023/08/01 07:34:37;;;;;;;0.93;0.60;;;16.30;99.90;;;;;;5036381;28;20069;-71
2023/08/01 07:37:03;;;;;;;1.38;0.85;;;16.30;99.90;;;;;;5024105;28;20042;-72
2023/08/01 07:39:29;;;;;;;2.88;0.80;;;16.40;99.90;;;;;;5025166;28;20419;-71
2023/08/01 07:41:56;;;;;;;3.53;0.82;;;16.60;99.90;;;;;;5041256;28;20072;-72
2023/08/01 07:44:22;;;;;;;1.30;0.75;;;16.70;99.90;;;;;;5049838;28;20412;-72
2023/08/01 07:46:47;;;;;;;2.10;0.65;;;16.90;99.90;;;;;;5045678;28;20044;-72
2023/08/01 07:49:13;;;;;;;1.88;0.77;;;17.00;99.90;;;;;;5025269;28;20041;-71
2023/08/01 07:51:39;;;;;;;1.98;0.73;;;17.00;99.90;;;;;;5028755;28;20511;-71
2023/08/01 07:54:04;;;;;;;6.95;0.82;;;17.10;99.90;;;;;;5028965;28;20045;-72
2023/08/01 07:56:30;;;;;;;2.38;0.93;;;17.30;99.90;;;;;;5029172;28;20065;-71
2023/08/01 07:58:56;;;;;;;10.20;0.70;;;17.30;99.90;;;;;;5029411;28;20152;-71
2023/08/01 08:01:22;;;;;;;8.60;1.25;;;17.40;99.90;;;;;;5030022;28;20041;-72
2023/08/01 08:03:48;;;;;;;3.97;0.75;;;17.40;99.90;;;;;;5060440;28;20445;-72
2023/08/01 08:06:14;;;;;;;32.03;3.65;;;17.40;99.90;;;;;;5031169;28;20120;-72
2023/08/01 08:08:39;;;;;;;3.00;0.75;;;17.40;99.90;;;;;;5029669;28;20041;-72
2023/08/01 08:11:05;;;;;;;3.35;0.80;;;17.30;99.90;;;;;;5026182;28;20085;-71
2023/08/01 08:13:31;;;;;;;7.15;0.70;;;17.40;99.90;;;;;;5027699;28;20077;-72
2023/08/01 08:15:57;;;;;;;3.53;0.80;;;17.40;99.90;;;;;;5059394;28;20053;-72
2023/08/01 08:18:23;;;;;;;3.22;0.82;;;17.50;99.90;;;;;;5029764;28;20049;-72
2023/08/01 08:20:49;;;;;;;2.50;0.65;;;17.60;99.90;;;;;;5040418;28;20081;-72
2023/08/01 08:23:14;;;;;;;2.50;0.70;;;17.60;99.90;;;;;;5031559;28;20081;-72
2023/08/01 08:25:46;;;;;;;1.55;0.70;;;17.50;99.90;;;;;;5028049;28;20142;-72
2023/08/01 08:28:13;;;;;;;3.55;0.75;;;17.50;99.90;;;;;;5027595;28;20049;-73
2023/08/01 08:30:39;;;;;;;4.97;0.70;;;17.40;99.90;;;;;;5027616;28;20045;-73
2023/08/01 08:33:06;;;;;;;2.38;0.80;;;17.30;99.90;;;;;;5061105;28;20138;-73
2023/08/01 08:35:35;;;;;;;0.70;0.52;;;17.40;99.90;;;;;;5044374;28;20415;-72
2023/08/01 08:38:06;;;;;;;1.73;0.57;;;17.50;99.90;;;;;;5060448;28;20622;-72
2023/08/01 08:40:33;;;;;;;2.15;0.40;;;17.40;99.90;;;;;;5018080;28;20061;-73
2023/08/01 08:43:03;;;;;;;2.22;0.70;;;17.40;99.90;;;;;;5029344;28;20122;-72
2023/08/01 08:45:32;;;;;;;1.27;0.60;;;17.30;99.90;;;;;;5039749;28;20041;-72
2023/08/01 08:48:04;;;;;;;1.88;0.60;;;17.20;99.90;;;;;;5021257;28;20049;-72
2023/08/01 08:50:31;;;;;;;6.38;0.90;;;17.20;99.90;;;;;;5027054;28;20046;-72
2023/08/01 08:52:58;;;;;;;2.75;1.10;;;17.30;99.90;;;;;;5027300;28;20060;-72
2023/08/01 08:55:26;;;;;;;5.53;1.25;;;17.40;99.90;;;;;;5043825;28;20041;-72
2023/08/01 08:57:53;;;;;;;2.60;0.52;;;17.50;99.90;;;;;;5004129;28;20483;-72
2023/08/01 09:00:19;;;;;;;1.30;0.70;;;17.60;99.90;;;;;;5027497;28;20045;-72
2023/08/01 09:02:45;;;;;;;3.42;0.80;;;17.60;99.90;;;;;;5032002;28;20403;-72
2023/08/01 09:05:12;;;;;;;4.70;1.02;;;17.70;99.90;;;;;;5028102;28;20052;-72
2023/08/01 09:07:42;;;;;;;2.17;0.60;;;17.50;99.90;;;;;;5027802;28;20548;-73
2023/08/01 09:10:08;;;;;;;1.98;0.70;;;17.60;99.90;;;;;;5035011;28;20503;-72
2023/08/01 09:12:37;;;;;;;1.88;0.60;;;17.60;99.90;;;;;;5043848;28;20091;-71
2023/08/01 09:15:02;;;;;;;2.27;0.67;;;17.70;99.90;;;;;;5026261;28;20080;-72
2023/08/01 09:17:28;;;;;;;2.88;0.65;;;17.50;99.90;;;;;;5060109;28;20482;-71
2023/08/01 09:20:07;;;;;;;0.55;0.32;;;17.40;99.90;;;;;;5041089;28;20407;-73
2023/08/01 09:22:46;;;;;;;1.13;0.50;;;17.20;99.90;;;;;;5025223;28;20047;-73
2023/08/01 09:25:13;;;;;;;7.90;0.95;;;17.10;99.90;;;;;;5028429;28;20507;-73
2023/08/01 09:27:39;;;;;;;2.60;0.70;;;17.00;99.90;;;;;;5039939;28;20056;-72
2023/08/01 09:30:15;;;;;;;2.13;0.50;;;16.90;99.90;;;;;;5005522;28;20049;-71
2023/08/01 09:32:55;;;;;;;4.88;0.60;;;16.70;99.90;;;;;;5038165;28;20153;-72
2023/08/01 09:35:22;;;;;;;1.25;0.45;;;16.70;99.90;;;;;;5015441;28;20052;-73
2023/08/01 09:37:48;;;;;;;3.83;1.05;;;16.60;99.90;;;;;;5026562;28;20045;-72
2023/08/01 09:40:14;;;;;;;2.33;0.80;;;16.60;99.90;;;;;;5041881;28;20053;-72
2023/08/01 09:42:41;;;;;;;2.30;0.70;;;16.60;99.90;;;;;;5025614;28;20049;-73
2023/08/01 09:45:13;;;;;;;3.58;0.57;;;16.60;99.90;;;;;;5020907;28;20051;-71
2023/08/01 09:47:39;;;;;;;4.38;0.90;;;16.70;99.90;;;;;;5034236;28;20196;-73
2023/08/01 09:50:05;;;;;;;2.13;0.77;;;16.70;99.90;;;;;;5033095;28;20136;-72
2023/08/01 09:52:31;;;;;;;5.00;0.70;;;16.60;99.90;;;;;;5026415;28;20048;-73
2023/08/01 09:54:57;;;;;;;11.48;1.00;;;16.60;99.90;;;;;;5042523;28;20076;-73
2023/08/01 09:57:25;;;;;;;5.40;0.82;;;16.50;99.90;;;;;;5042577;28;20550;-75
2023/08/01 09:59:51;;;;;;;3.88;0.77;;;16.40;99.90;;;;;;5033263;28;20133;-75
2023/08/01 10:02:21;;;;;;;1.08;0.32;;;16.40;99.90;;;;;;5041993;28;20183;-75
2023/08/01 10:04:47;;;;;;;2.50;0.50;;;16.40;99.90;;;;;;5059763;28;20038;-75
2023/08/01 10:07:17;;;;;;;2.58;0.68;;;16.40;99.90;;;;;;5025262;28;20048;-75
2023/08/01 10:09:42;;;;;;;;;;;16.50;99.90;;;;;;5027141;28;20041;-75
2023/08/01 10:12:12;;;;;;;1.50;0.40;;;16.70;99.90;;;;;;5018170;28;19927;-74
2023/08/01 10:14:39;;;;;;;5.20;1.08;;;17.00;99.90;;;;;;5008494;28;20083;-74
2023/08/01 10:17:05;;;;;;;1.10;0.65;;;17.40;99.90;;;;;;5058098;28;20049;-74
2023/08/01 10:19:32;;;;;;;4.05;0.55;;;17.50;99.90;;;;;;5009245;28;20391;-74
2023/08/01 10:21:59;;;;;;;3.45;0.65;;;17.50;99.90;;;;;;5042441;28;20081;-74
2023/08/01 10:24:27;;;;;;;2.50;0.57;;;17.50;99.90;;;;;;5027730;28;20060;-73
2023/08/01 10:26:53;;;;;;;7.03;0.60;;;17.50;99.90;;;;;;5028139;28;20519;-73
2023/08/01 10:29:18;;;;;;;4.57;0.70;;;17.60;99.90;;;;;;5029212;28;20051;-74
2023/08/01 10:31:52;;;;;;;1.48;0.40;;;17.80;99.90;;;;;;5005891;28;20053;-73
2023/08/01 10:34:21;;;;;;;3.47;0.52;;;18.10;99.90;;;;;;5016815;28;20057;-73
2023/08/01 10:36:57;;;;;;;3.90;0.67;;;18.30;99.90;;;;;;5008009;28;20049;-72
2023/08/01 10:39:25;;;;;;;2.40;0.80;;;18.30;99.90;;;;;;5023912;28;20129;-72
2023/08/01 10:42:05;;;;;;;5.53;1.10;;;18.20;99.90;;;;;;5020004;28;20442;-72
2023/08/01 10:44:33;;;;;;;5.50;0.60;;;18.00;99.90;;;;;;5024188;28;20471;-72
2023/08/01 10:47:04;;;;;;;1.70;0.57;;;17.80;99.90;;;;;;5012022;28;20176;-73
2023/08/01 10:49:38;;;;;;;3.95;0.80;;;17.60;99.90;;;;;;5003850;28;20154;-72
2023/08/01 10:52:17;;;;;;;4.72;1.00;;;17.40;99.90;;;;;;5057562;28;20365;-72
2023/08/01 10:54:43;;;;;;;3.13;0.70;;;17.30;99.90;;;;;;5057462;28;20573;-73
2023/08/01 10:57:18;;;;;;;4.80;0.98;;;17.40;99.90;;;;;;5024233;28;20782;-73
2023/08/01 10:59:44;;;;;;;3.47;0.70;;;17.50;99.90;;;;;;5057820;28;20496;-72
2023/08/01 11:02:10;;;;;;;1.48;0.65;;;17.60;99.90;;;;;;5038770;28;20052;-73
2023/08/01 11:04:36;;;;;;;4.53;1.10;;;17.80;99.90;;;;;;5016516;28;20045;-72
2023/08/01 11:07:04;;;;;;;4.82;0.85;;;18.10;99.90;;;;;;5025296;28;20622;-72
2023/08/01 11:09:30;;;;;;;3.28;1.00;;;18.20;99.90;;;;;;5025289;28;20045;-72
2023/08/01 11:12:00;;;;;;;3.88;1.10;;;18.50;99.90;;;;;;5039610;28;20534;-72
2023/08/01 11:14:27;;;;;;;3.72;0.70;;;18.60;99.90;;;;;;5028516;28;20256;-72
2023/08/01 11:16:57;;;;;;;3.83;0.80;;;18.80;99.90;;;;;;5026554;28;20041;-72
2023/08/01 11:19:29;;;;;;;;;;;18.90;99.90;;;;;;5041685;28;20037;-72
2023/08/01 11:21:57;;;;;;;3.47;0.70;;;18.80;99.90;;;;;;5024852;28;20020;-72
2023/08/01 11:24:24;;;;;;;2.53;0.93;;;18.70;99.90;;;;;;5022281;28;20400;-72
2023/08/01 11:26:51;;;;;;;6.63;1.00;;;18.70;99.90;;;;;;5057862;28;20073;-72
2023/08/01 11:29:18;;;;;;;7.43;2.55;;;18.70;99.90;;;;;;5025844;28;20045;-72
2023/08/01 11:31:57;;;;;;;2.70;0.98;;;18.70;99.90;;;;;;5012592;28;20046;-72
2023/08/01 11:34:23;;;;;;;3.40;0.98;;;18.70;99.90;;;;;;5024329;28;20053;-72
2023/08/01 11:36:49;;;;;;;3.50;1.00;;;18.70;99.90;;;;;;5052870;28;20049;-71
2023/08/01 11:39:16;;;;;;;5.60;1.48;;;18.70;99.90;;;;;;5025594;28;20053;-71
2023/08/01 11:41:43;;;;;;;4.18;0.57;;;18.80;99.90;;;;;;5024574;28;20053;-71
2023/08/01 11:44:10;;;;;;;3.00;0.80;;;19.00;99.90;;;;;;5041260;28;20084;-71
2023/08/01 11:46:37;;;;;;;1.38;0.63;;;19.10;99.90;;;;;;5025053;28;20056;-71
2023/08/01 11:49:04;;;;;;;2.05;0.80;;;19.30;99.90;;;;;;5008848;28;20132;-71
2023/08/01 11:51:30;;;;;;;6.43;1.10;;;19.50;99.90;;;;;;5040392;28;20484;-70
2023/08/01 11:54:03;;;;;;;4.90;1.05;;;19.70;99.90;;;;;;5041753;28;20046;-70
2023/08/01 11:56:30;;;;;;;2.33;0.80;;;19.70;99.90;;;;;;5040406;28;20045;-71
2023/08/01 11:58:55;;;;;;;2.70;0.80;;;19.70;99.90;;;;;;5028155;28;20411;-71
2023/08/01 12:01:22;;;;;;;2.85;0.82;;;19.60;99.90;;;;;;5025564;28;20041;-70
2023/08/01 12:03:47;;;;;;;2.33;0.70;;;19.60;99.90;;;;;;5024085;28;20045;-71
2023/08/01 12:06:14;;;;;;;3.58;1.20;;;19.70;99.90;;;;;;5041005;28;20053;-70
2023/08/01 12:08:42;;;;;;;13.32;1.05;;;19.90;99.90;;;;;;5023557;28;20050;-71
2023/08/01 12:11:25;;;;;;;4.97;0.90;;;19.90;99.90;;;;;;5027292;28;20124;-71
2023/08/01 12:14:07;;;;;;;2.17;0.68;;;19.90;99.90;;;;;;5024925;28;20403;-71
2023/08/01 12:16:33;;;;;;;3.40;0.77;;;20.00;99.90;;;;;;5038765;28;20233;-70
2023/08/01 12:18:59;;;;;;;2.10;0.50;;;20.00;99.80;;;;;;5034864;28;20072;-70
2023/08/01 12:21:24;;;;;;;1.70;0.80;;;20.00;99.60;;;;;;5007878;28;20072;-70
2023/08/01 12:23:50;;;;;;;3.08;1.10;;;19.90;93.30;;;;;;5040994;28;20091;-70
2023/08/01 12:26:16;;;;;;;3.80;1.02;;;19.90;96.90;;;;;;5019527;28;20048;-70
2023/08/01 12:28:42;;;;;;;1.73;0.82;;;19.90;99.90;;;;;;5031507;28;20456;-71
2023/08/01 12:31:07;;;;;;;6.65;1.40;;;19.70;92.00;;;;;;5024280;28;20049;-71
2023/08/01 12:33:33;;;;;;;7.30;0.85;;;19.50;99.40;;;;;;5024540;28;20077;-71
2023/08/01 12:36:00;;;;;;;2.45;0.70;;;19.30;99.30;;;;;;5024523;28;20088;-71
2023/08/01 12:38:26;;;;;;;4.53;0.95;;;19.00;99.90;;;;;;5040854;28;20476;-71
2023/08/01 12:40:52;;;;;;;3.38;0.70;;;19.00;99.90;;;;;;5028329;28;20084;-71
2023/08/01 12:43:18;;;;;;;3.13;1.00;;;19.00;99.90;;;;;;5028450;28;20079;-71